sensor_id;sensor_type;location;lat;lon;timestamp;temperature;humidity
27795;DHT22;15176;50.844;4.412;2023-07-20T00:01:04;19.20;99.90
27795;DHT22;15176;50.844;4.412;2023-07-20T00:03:30;19.10;99.90
27795;DHT22;15176;50.844;4.412;2023-07-20T00:05:55;19.00;99.90
27795;DHT22;15176;50.844;4.412;2023-07-20T00:08:21;19.00;99.90
27795;DHT22;15176;50.844;4.412;2023-07-20T00:10:47;18.90;99.90
27795;DHT22;15176;50.844;4.412;2023-07-20T00:13:13;18.70;99.90
27795;DHT22;15176;50.844;4.412;2023-07-20T00:15:39;18.80;99.90
27795;DHT22;15176;50.844;4.412;2023-07-20T00:18:06;18.70;99.90
27795;DHT22;15176;50.844;4.412;2023-07-20T00:20:32;18.90;99.90
27795;DHT22;15176;50.844;4.412;2023-07-20T00:22:58;18.90;99.90
27795;DHT22;15176;50.844;4.412;2023-07-20T00:25:24;18.90;99.90
27795;DHT22;15176;50.844;4.412;2023-07-20T00:27:50;18.90;99.90
27795;DHT22;15176;50.844;4.412;2023-07-20T00:30:16;18.50;99.90
27795;DHT22;15176;50.844;4.412;2023-07-20T00:32:43;18.50;99.90
27795;DHT22;15176;50.844;4.412;2023-07-20T00:35:09;18.50;99.90
27795;DHT22;15176;50.844;4.412;2023-07-20T00:37:35;18.50;99.90
27795;DHT22;15176;50.844;4.412;2023-07-20T00:40:01;18.50;99.90
27795;DHT22;15176;50.844;4.412;2023-07-20T00:42:30;18.60;99.90
27795;DHT22;15176;50.844;4.412;2023-07-20T00:44:59;18.70;99.90
27795;DHT22;15176;50.844;4.412;2023-07-20T00:47:26;19.00;99.90
27795;DHT22;15176;50.844;4.412;2023-07-20T00:49:53;18.80;99.90
27795;DHT22;15176;50.844;4.412;2023-07-20T00:52:21;18.80;99.90
27795;DHT22;15176;50.844;4.412;2023-07-20T00:54:47;18.90;99.90
27795;DHT22;15176;50.844;4.412;2023-07-20T00:57:15;18.70;99.90
27795;DHT22;15176;50.844;4.412;2023-07-20T00:59:41;18.80;99.90
27795;DHT22;15176;50.844;4.412;2023-07-20T01:02:07;18.80;99.90
27795;DHT22;15176;50.844;4.412;2023-07-20T01:04:34;18.90;99.90
27795;DHT22;15176;50.844;4.412;2023-07-20T01:07:14;18.90;99.90
27795;DHT22;15176;50.844;4.412;2023-07-20T01:09:48;18.90;99.90
27795;DHT22;15176;50.844;4.412;2023-07-20T01:12:27;18.80;99.90
27795;DHT22;15176;50.844;4.412;2023-07-20T01:14:55;18.90;99.90
27795;DHT22;15176;50.844;4.412;2023-07-20T01:17:22;18.70;99.90
27795;DHT22;15176;50.844;4.412;2023-07-20T01:19:50;18.70;99.90
27795;DHT22;15176;50.844;4.412;2023-07-20T01:33:42;18.80;99.90
27795;DHT22;15176;50.844;4.412;2023-07-20T01:36:08;18.90;99.90
27795;DHT22;15176;50.844;4.412;2023-07-20T01:38:36;18.70;99.90
27795;DHT22;15176;50.844;4.412;2023-07-20T01:41:02;18.60;99.90
27795;DHT22;15176;50.844;4.412;2023-07-20T01:43:28;18.50;99.90
27795;DHT22;15176;50.844;4.412;2023-07-20T01:45:54;18.60;99.90
27795;DHT22;15176;50.844;4.412;2023-07-20T01:48:19;18.80;99.90
27795;DHT22;15176;50.844;4.412;2023-07-20T01:50:45;18.70;99.90
27795;DHT22;15176;50.844;4.412;2023-07-20T01:53:11;18.80;99.90
27795;DHT22;15176;50.844;4.412;2023-07-20T01:55:36;18.90;99.90
27795;DHT22;15176;50.844;4.412;2023-07-20T01:58:02;18.90;99.90
27795;DHT22;15176;50.844;4.412;2023-07-20T02:00:29;19.00;99.90
27795;DHT22;15176;50.844;4.412;2023-07-20T02:02:55;18.90;99.90
27795;DHT22;15176;50.844;4.412;2023-07-20T02:05:22;18.80;99.90
27795;DHT22;15176;50.844;4.412;2023-07-20T02:07:47;19.00;99.90
27795;DHT22;15176;50.844;4.412;2023-07-20T02:10:13;19.00;99.90
27795;DHT22;15176;50.844;4.412;2023-07-20T02:12:40;19.00;99.90
27795;DHT22;15176;50.844;4.412;2023-07-20T02:15:06;19.30;99.90
27795;DHT22;15176;50.844;4.412;2023-07-20T02:17:32;19.40;99.90
27795;DHT22;15176;50.844;4.412;2023-07-20T02:19:57;19.50;99.90
27795;DHT22;15176;50.844;4.412;2023-07-20T02:22:23;19.40;99.90
27795;DHT22;15176;50.844;4.412;2023-07-20T02:24:49;19.30;99.90
27795;DHT22;15176;50.844;4.412;2023-07-20T02:27:16;19.10;99.90
27795;DHT22;15176;50.844;4.412;2023-07-20T02:29:42;19.10;99.90
27795;DHT22;15176;50.844;4.412;2023-07-20T02:32:08;19.20;99.90
27795;DHT22;15176;50.844;4.412;2023-07-20T02:34:35;19.30;99.90
27795;DHT22;15176;50.844;4.412;2023-07-20T02:37:01;19.40;99.90
27795;DHT22;15176;50.844;4.412;2023-07-20T02:39:28;19.40;99.90
27795;DHT22;15176;50.844;4.412;2023-07-20T02:41:54;19.80;99.90
27795;DHT22;15176;50.844;4.412;2023-07-20T02:44:20;19.90;99.90
27795;DHT22;15176;50.844;4.412;2023-07-20T02:46:45;20.10;99.90
27795;DHT22;15176;50.844;4.412;2023-07-20T02:49:12;19.90;99.90
27795;DHT22;15176;50.844;4.412;2023-07-20T02:51:38;19.90;99.90
27795;DHT22;15176;50.844;4.412;2023-07-20T02:54:04;19.90;99.90
27795;DHT22;15176;50.844;4.412;2023-07-20T02:56:29;19.70;99.90
27795;DHT22;15176;50.844;4.412;2023-07-20T02:58:55;19.60;99.90
27795;DHT22;15176;50.844;4.412;2023-07-20T03:01:22;19.70;99.90
27795;DHT22;15176;50.844;4.412;2023-07-20T03:03:48;20.00;99.90
27795;DHT22;15176;50.844;4.412;2023-07-20T03:06:15;20.30;99.90
27795;DHT22;15176;50.844;4.412;2023-07-20T03:08:44;20.50;99.90
27795;DHT22;15176;50.844;4.412;2023-07-20T03:11:15;20.70;99.90
27795;DHT22;15176;50.844;4.412;2023-07-20T03:13:42;20.60;99.90
27795;DHT22;15176;50.844;4.412;2023-07-20T03:16:08;20.40;99.90
27795;DHT22;15176;50.844;4.412;2023-07-20T03:18:37;20.10;99.90
27795;DHT22;15176;50.844;4.412;2023-07-20T03:21:04;19.90;99.90
27795;DHT22;15176;50.844;4.412;2023-07-20T03:23:30;19.80;99.90
27795;DHT22;15176;50.844;4.412;2023-07-20T03:25:56;20.10;99.90
27795;DHT22;15176;50.844;4.412;2023-07-20T03:28:22;20.00;99.90
27795;DHT22;15176;50.844;4.412;2023-07-20T03:30:55;20.00;99.90
27795;DHT22;15176;50.844;4.412;2023-07-20T03:33:29;20.30;99.90
27795;DHT22;15176;50.844;4.412;2023-07-20T03:35:56;20.40;99.90
27795;DHT22;15176;50.844;4.412;2023-07-20T03:38:22;20.00;99.90
27795;DHT22;15176;50.844;4.412;2023-07-20T03:40:52;19.80;99.90
27795;DHT22;15176;50.844;4.412;2023-07-20T03:43:23;19.60;99.90
27795;DHT22;15176;50.844;4.412;2023-07-20T03:45:49;19.90;99.90
27795;DHT22;15176;50.844;4.412;2023-07-20T03:48:20;19.80;99.90
27795;DHT22;15176;50.844;4.412;2023-07-20T03:50:48;19.80;99.90
27795;DHT22;15176;50.844;4.412;2023-07-20T03:53:15;20.10;99.90
27795;DHT22;15176;50.844;4.412;2023-07-20T03:55:48;20.30;99.90
27795;DHT22;15176;50.844;4.412;2023-07-20T03:58:15;20.40;99.90
27795;DHT22;15176;50.844;4.412;2023-07-20T04:00:53;20.00;99.90
27795;DHT22;15176;50.844;4.412;2023-07-20T04:03:19;20.00;99.90
27795;DHT22;15176;50.844;4.412;2023-07-20T04:05:45;20.00;99.90
27795;DHT22;15176;50.844;4.412;2023-07-20T04:08:11;20.10;99.90
27795;DHT22;15176;50.844;4.412;2023-07-20T04:10:38;20.30;99.90
27795;DHT22;15176;50.844;4.412;2023-07-20T04:13:04;20.30;99.90
27795;DHT22;15176;50.844;4.412;2023-07-20T04:15:31;20.00;99.90
27795;DHT22;15176;50.844;4.412;2023-07-20T04:17:56;20.00;99.90
27795;DHT22;15176;50.844;4.412;2023-07-20T04:20:24;20.00;99.90
27795;DHT22;15176;50.844;4.412;2023-07-20T04:22:50;20.20;99.90
27795;DHT22;15176;50.844;4.412;2023-07-20T04:25:17;20.40;99.90
27795;DHT22;15176;50.844;4.412;2023-07-20T04:27:43;20.40;99.90
27795;DHT22;15176;50.844;4.412;2023-07-20T04:30:09;20.10;99.90
27795;DHT22;15176;50.844;4.412;2023-07-20T04:32:36;20.20;99.90
27795;DHT22;15176;50.844;4.412;2023-07-20T04:35:05;20.20;99.90
27795;DHT22;15176;50.844;4.412;2023-07-20T04:37:31;20.40;99.90
27795;DHT22;15176;50.844;4.412;2023-07-20T04:39:57;20.50;99.90
27795;DHT22;15176;50.844;4.412;2023-07-20T04:42:23;20.00;99.90
27795;DHT22;15176;50.844;4.412;2023-07-20T04:44:49;19.90;99.90
27795;DHT22;15176;50.844;4.412;2023-07-20T04:47:15;20.20;99.90
27795;DHT22;15176;50.844;4.412;2023-07-20T04:49:40;20.10;99.90
27795;DHT22;15176;50.844;4.412;2023-07-20T04:52:08;19.60;99.90
27795;DHT22;15176;50.844;4.412;2023-07-20T04:54:33;19.90;99.90
27795;DHT22;15176;50.844;4.412;2023-07-20T04:56:59;19.90;99.90
27795;DHT22;15176;50.844;4.412;2023-07-20T04:59:24;19.70;99.90
27795;DHT22;15176;50.844;4.412;2023-07-20T05:01:50;19.90;99.90
27795;DHT22;15176;50.844;4.412;2023-07-20T05:04:16;19.80;99.90
27795;DHT22;15176;50.844;4.412;2023-07-20T05:06:41;19.70;99.90
27795;DHT22;15176;50.844;4.412;2023-07-20T05:09:08;19.80;99.90
27795;DHT22;15176;50.844;4.412;2023-07-20T05:11:34;19.90;99.90
27795;DHT22;15176;50.844;4.412;2023-07-20T05:14:00;19.80;99.90
27795;DHT22;15176;50.844;4.412;2023-07-20T05:16:29;19.90;99.90
27795;DHT22;15176;50.844;4.412;2023-07-20T05:18:54;19.90;99.90
27795;DHT22;15176;50.844;4.412;2023-07-20T05:21:22;19.90;99.90
27795;DHT22;15176;50.844;4.412;2023-07-20T05:23:48;19.70;99.90
27795;DHT22;15176;50.844;4.412;2023-07-20T05:26:13;19.50;99.90
27795;DHT22;15176;50.844;4.412;2023-07-20T05:28:39;19.60;99.90
27795;DHT22;15176;50.844;4.412;2023-07-20T05:31:06;19.80;99.90
27795;DHT22;15176;50.844;4.412;2023-07-20T05:33:32;20.00;99.90
27795;DHT22;15176;50.844;4.412;2023-07-20T05:35:58;20.00;99.90
27795;DHT22;15176;50.844;4.412;2023-07-20T05:38:24;19.90;99.90
27795;DHT22;15176;50.844;4.412;2023-07-20T05:40:50;19.60;99.90
27795;DHT22;15176;50.844;4.412;2023-07-20T05:43:16;19.80;99.90
27795;DHT22;15176;50.844;4.412;2023-07-20T05:45:43;19.90;99.90
27795;DHT22;15176;50.844;4.412;2023-07-20T05:48:09;19.60;99.90
27795;DHT22;15176;50.844;4.412;2023-07-20T05:50:43;19.40;99.90
27795;DHT22;15176;50.844;4.412;2023-07-20T05:53:09;19.60;99.90
27795;DHT22;15176;50.844;4.412;2023-07-20T05:55:34;19.80;99.90
27795;DHT22;15176;50.844;4.412;2023-07-20T05:58:03;19.70;99.90
27795;DHT22;15176;50.844;4.412;2023-07-20T06:00:29;19.70;99.90
27795;DHT22;15176;50.844;4.412;2023-07-20T06:02:55;20.00;99.90
27795;DHT22;15176;50.844;4.412;2023-07-20T06:05:22;20.20;99.90
27795;DHT22;15176;50.844;4.412;2023-07-20T06:07:49;20.30;99.90
27795;DHT22;15176;50.844;4.412;2023-07-20T06:10:15;20.20;99.90
27795;DHT22;15176;50.844;4.412;2023-07-20T06:12:41;20.20;99.90
27795;DHT22;15176;50.844;4.412;2023-07-20T06:15:27;20.30;99.90
27795;DHT22;15176;50.844;4.412;2023-07-20T06:17:54;20.30;99.90
27795;DHT22;15176;50.844;4.412;2023-07-20T06:20:22;20.50;99.90
27795;DHT22;15176;50.844;4.412;2023-07-20T06:22:47;20.30;99.90
27795;DHT22;15176;50.844;4.412;2023-07-20T06:25:13;20.20;99.90
27795;DHT22;15176;50.844;4.412;2023-07-20T06:27:39;20.30;99.90
27795;DHT22;15176;50.844;4.412;2023-07-20T06:30:06;20.50;99.90
27795;DHT22;15176;50.844;4.412;2023-07-20T06:32:31;20.50;99.90
27795;DHT22;15176;50.844;4.412;2023-07-20T06:34:57;20.50;99.90
27795;DHT22;15176;50.844;4.412;2023-07-20T06:37:23;20.50;99.90
27795;DHT22;15176;50.844;4.412;2023-07-20T06:39:49;20.50;99.90
27795;DHT22;15176;50.844;4.412;2023-07-20T06:42:15;20.50;99.90
27795;DHT22;15176;50.844;4.412;2023-07-20T06:44:40;20.40;99.90
27795;DHT22;15176;50.844;4.412;2023-07-20T06:47:06;20.60;99.90
27795;DHT22;15176;50.844;4.412;2023-07-20T06:49:33;20.50;99.90
27795;DHT22;15176;50.844;4.412;2023-07-20T06:51:58;20.50;99.90
27795;DHT22;15176;50.844;4.412;2023-07-20T06:54:24;20.60;99.90
27795;DHT22;15176;50.844;4.412;2023-07-20T06:56:50;20.50;99.90
27795;DHT22;15176;50.844;4.412;2023-07-20T06:59:16;20.60;99.90
27795;DHT22;15176;50.844;4.412;2023-07-20T07:01:41;20.70;99.90
27795;DHT22;15176;50.844;4.412;2023-07-20T07:04:07;20.80;99.90
27795;DHT22;15176;50.844;4.412;2023-07-20T07:06:32;20.80;99.90
27795;DHT22;15176;50.844;4.412;2023-07-20T07:08:58;20.90;99.90
27795;DHT22;15176;50.844;4.412;2023-07-20T07:11:24;21.00;99.90
27795;DHT22;15176;50.844;4.412;2023-07-20T07:13:50;21.10;99.90
27795;DHT22;15176;50.844;4.412;2023-07-20T07:16:17;21.20;99.90
27795;DHT22;15176;50.844;4.412;2023-07-20T07:18:50;21.00;99.90
27795;DHT22;15176;50.844;4.412;2023-07-20T07:21:16;21.00;99.90
27795;DHT22;15176;50.844;4.412;2023-07-20T07:23:42;21.30;99.90
27795;DHT22;15176;50.844;4.412;2023-07-20T07:26:09;21.70;99.90
27795;DHT22;15176;50.844;4.412;2023-07-20T07:28:34;22.00;99.90
27795;DHT22;15176;50.844;4.412;2023-07-20T07:31:00;22.30;99.90
27795;DHT22;15176;50.844;4.412;2023-07-20T07:33:26;22.40;99.90
27795;DHT22;15176;50.844;4.412;2023-07-20T07:35:52;22.50;99.90
27795;DHT22;15176;50.844;4.412;2023-07-20T07:38:18;22.50;99.90
27795;DHT22;15176;50.844;4.412;2023-07-20T07:40:44;22.60;99.90
27795;DHT22;15176;50.844;4.412;2023-07-20T07:43:10;22.70;99.90
27795;DHT22;15176;50.844;4.412;2023-07-20T07:45:37;23.00;99.90
27795;DHT22;15176;50.844;4.412;2023-07-20T07:48:03;23.10;99.90
27795;DHT22;15176;50.844;4.412;2023-07-20T07:50:29;23.10;99.90
27795;DHT22;15176;50.844;4.412;2023-07-20T07:52:55;23.50;99.90
27795;DHT22;15176;50.844;4.412;2023-07-20T07:55:21;23.80;99.90
27795;DHT22;15176;50.844;4.412;2023-07-20T07:57:46;23.90;99.90
27795;DHT22;15176;50.844;4.412;2023-07-20T08:00:13;24.20;99.90
27795;DHT22;15176;50.844;4.412;2023-07-20T08:02:43;24.00;99.90
27795;DHT22;15176;50.844;4.412;2023-07-20T08:05:09;23.60;99.90
27795;DHT22;15176;50.844;4.412;2023-07-20T08:07:36;23.50;99.90
27795;DHT22;15176;50.844;4.412;2023-07-20T08:10:02;23.10;99.90
27795;DHT22;15176;50.844;4.412;2023-07-20T08:12:28;23.10;99.90
27795;DHT22;15176;50.844;4.412;2023-07-20T08:14:54;23.30;99.90
27795;DHT22;15176;50.844;4.412;2023-07-20T08:17:19;23.00;99.90
27795;DHT22;15176;50.844;4.412;2023-07-20T08:19:46;23.10;99.90
27795;DHT22;15176;50.844;4.412;2023-07-20T08:22:12;23.30;99.90
27795;DHT22;15176;50.844;4.412;2023-07-20T08:24:42;23.60;99.90
27795;DHT22;15176;50.844;4.412;2023-07-20T08:27:08;23.60;99.90
27795;DHT22;15176;50.844;4.412;2023-07-20T08:29:34;24.00;99.90
27795;DHT22;15176;50.844;4.412;2023-07-20T08:32:04;23.80;99.90
27795;DHT22;15176;50.844;4.412;2023-07-20T08:34:30;23.80;99.90
27795;DHT22;15176;50.844;4.412;2023-07-20T08:36:56;24.10;99.90
27795;DHT22;15176;50.844;4.412;2023-07-20T08:39:23;24.70;99.90
27795;DHT22;15176;50.844;4.412;2023-07-20T08:41:49;25.20;99.90
27795;DHT22;15176;50.844;4.412;2023-07-20T08:44:15;24.90;99.90
27795;DHT22;15176;50.844;4.412;2023-07-20T08:46:41;24.60;99.90
27795;DHT22;15176;50.844;4.412;2023-07-20T08:49:08;24.60;99.90
27795;DHT22;15176;50.844;4.412;2023-07-20T08:51:35;24.80;99.90
27795;DHT22;15176;50.844;4.412;2023-07-20T08:54:01;24.90;99.90
27795;DHT22;15176;50.844;4.412;2023-07-20T08:56:28;24.50;99.90
27795;DHT22;15176;50.844;4.412;2023-07-20T08:58:57;24.30;99.90
27795;DHT22;15176;50.844;4.412;2023-07-20T09:01:24;23.80;99.90
27795;DHT22;15176;50.844;4.412;2023-07-20T09:03:50;23.80;99.90
27795;DHT22;15176;50.844;4.412;2023-07-20T09:06:16;23.90;99.90
27795;DHT22;15176;50.844;4.412;2023-07-20T09:08:42;24.50;99.90
27795;DHT22;15176;50.844;4.412;2023-07-20T09:11:10;24.70;99.90
27795;DHT22;15176;50.844;4.412;2023-07-20T09:13:37;24.80;99.40
27795;DHT22;15176;50.844;4.412;2023-07-20T09:16:03;24.50;98.90
27795;DHT22;15176;50.844;4.412;2023-07-20T09:18:31;24.30;99.90
27795;DHT22;15176;50.844;4.412;2023-07-20T09:21:04;24.50;99.90
27795;DHT22;15176;50.844;4.412;2023-07-20T09:23:32;24.80;99.50
27795;DHT22;15176;50.844;4.412;2023-07-20T09:25:58;24.80;99.50
27795;DHT22;15176;50.844;4.412;2023-07-20T09:28:25;24.90;98.40
27795;DHT22;15176;50.844;4.412;2023-07-20T09:30:51;24.90;98.70
27795;DHT22;15176;50.844;4.412;2023-07-20T09:33:24;24.80;98.40
27795;DHT22;15176;50.844;4.412;2023-07-20T09:35:50;24.20;99.80
27795;DHT22;15176;50.844;4.412;2023-07-20T09:38:16;24.50;99.90
27795;DHT22;15176;50.844;4.412;2023-07-20T09:40:42;24.30;99.90
27795;DHT22;15176;50.844;4.412;2023-07-20T09:43:08;24.80;99.90
27795;DHT22;15176;50.844;4.412;2023-07-20T09:45:43;25.40;98.90
27795;DHT22;15176;50.844;4.412;2023-07-20T09:48:10;25.50;97.70
27795;DHT22;15176;50.844;4.412;2023-07-20T09:50:43;25.70;97.40
27795;DHT22;15176;50.844;4.412;2023-07-20T09:53:11;25.30;96.70
27795;DHT22;15176;50.844;4.412;2023-07-20T09:55:48;25.60;96.50
27795;DHT22;15176;50.844;4.412;2023-07-20T09:58:14;26.10;95.00
27795;DHT22;15176;50.844;4.412;2023-07-20T10:00:42;26.00;93.70
27795;DHT22;15176;50.844;4.412;2023-07-20T10:03:16;26.10;92.40
27795;DHT22;15176;50.844;4.412;2023-07-20T10:05:47;25.90;93.10
27795;DHT22;15176;50.844;4.412;2023-07-20T10:08:16;26.50;93.80
27795;DHT22;15176;50.844;4.412;2023-07-20T10:10:44;26.90;91.80
27795;DHT22;15176;50.844;4.412;2023-07-20T10:13:17;27.30;90.90
27795;DHT22;15176;50.844;4.412;2023-07-20T10:15:58;27.60;88.00
27795;DHT22;15176;50.844;4.412;2023-07-20T10:18:31;27.90;86.90
27795;DHT22;15176;50.844;4.412;2023-07-20T10:21:01;27.10;85.50
27795;DHT22;15176;50.844;4.412;2023-07-20T10:23:29;26.70;88.10
27795;DHT22;15176;50.844;4.412;2023-07-20T10:25:57;26.70;90.00
27795;DHT22;15176;50.844;4.412;2023-07-20T10:28:23;26.80;87.40
27795;DHT22;15176;50.844;4.412;2023-07-20T10:30:50;26.70;85.90
27795;DHT22;15176;50.844;4.412;2023-07-20T10:33:17;26.20;87.80
27795;DHT22;15176;50.844;4.412;2023-07-20T10:35:55;26.20;88.80
27795;DHT22;15176;50.844;4.412;2023-07-20T10:43:58;26.30;90.20
27795;DHT22;15176;50.844;4.412;2023-07-20T10:49:08;26.20;90.20
27795;DHT22;15176;50.844;4.412;2023-07-20T10:56:47;26.10;90.40
27795;DHT22;15176;50.844;4.412;2023-07-20T11:01:55;25.90;89.50
27795;DHT22;15176;50.844;4.412;2023-07-20T11:07:03;24.70;92.10
27795;DHT22;15176;50.844;4.412;2023-07-20T11:09:34;24.50;93.60
27795;DHT22;15176;50.844;4.412;2023-07-20T11:12:11;25.00;92.50
27795;DHT22;15176;50.844;4.412;2023-07-20T11:14:57;25.20;92.50
27795;DHT22;15176;50.844;4.412;2023-07-20T11:17:30;25.50;91.60
27795;DHT22;15176;50.844;4.412;2023-07-20T11:19:57;25.60;91.80
27795;DHT22;15176;50.844;4.412;2023-07-20T11:22:23;25.60;92.00
27795;DHT22;15176;50.844;4.412;2023-07-20T11:24:49;25.70;92.00
27795;DHT22;15176;50.844;4.412;2023-07-20T11:27:15;25.90;91.40
27795;DHT22;15176;50.844;4.412;2023-07-20T11:29:41;25.70;91.30
27795;DHT22;15176;50.844;4.412;2023-07-20T11:32:07;25.60;90.40
27795;DHT22;15176;50.844;4.412;2023-07-20T11:34:34;25.60;91.30
27795;DHT22;15176;50.844;4.412;2023-07-20T11:37:00;25.70;91.50
27795;DHT22;15176;50.844;4.412;2023-07-20T11:39:26;25.40;92.00
27795;DHT22;15176;50.844;4.412;2023-07-20T11:41:54;25.60;93.00
27795;DHT22;15176;50.844;4.412;2023-07-20T11:44:22;25.80;91.70
27795;DHT22;15176;50.844;4.412;2023-07-20T11:47:09;25.60;90.60
27795;DHT22;15176;50.844;4.412;2023-07-20T11:49:37;25.60;90.70
27795;DHT22;15176;50.844;4.412;2023-07-20T11:52:07;25.70;90.10
27795;DHT22;15176;50.844;4.412;2023-07-20T11:54:37;25.50;90.50
27795;DHT22;15176;50.844;4.412;2023-07-20T11:57:05;25.60;88.40
27795;DHT22;15176;50.844;4.412;2023-07-20T11:59:31;25.60;87.00
27795;DHT22;15176;50.844;4.412;2023-07-20T12:02:06;25.70;85.90
27795;DHT22;15176;50.844;4.412;2023-07-20T12:04:32;25.30;83.30
27795;DHT22;15176;50.844;4.412;2023-07-20T12:06:58;25.40;84.30
27795;DHT22;15176;50.844;4.412;2023-07-20T12:09:24;25.80;83.10
27795;DHT22;15176;50.844;4.412;2023-07-20T12:11:50;25.50;86.50
27795;DHT22;15176;50.844;4.412;2023-07-20T12:14:16;25.30;87.60
27795;DHT22;15176;50.844;4.412;2023-07-20T12:16:42;25.50;87.30
27795;DHT22;15176;50.844;4.412;2023-07-20T12:19:10;25.10;88.50
27795;DHT22;15176;50.844;4.412;2023-07-20T12:21:37;25.10;90.10
27795;DHT22;15176;50.844;4.412;2023-07-20T12:24:03;25.10;89.40
27795;DHT22;15176;50.844;4.412;2023-07-20T12:26:30;25.30;89.90
27795;DHT22;15176;50.844;4.412;2023-07-20T12:28:56;24.90;90.50
27795;DHT22;15176;50.844;4.412;2023-07-20T12:31:22;24.70;90.40
27795;DHT22;15176;50.844;4.412;2023-07-20T12:33:50;25.00;90.50
27795;DHT22;15176;50.844;4.412;2023-07-20T12:36:17;25.40;91.30
27795;DHT22;15176;50.844;4.412;2023-07-20T12:38:43;25.30;90.30
27795;DHT22;15176;50.844;4.412;2023-07-20T12:41:11;25.40;90.50
27795;DHT22;15176;50.844;4.412;2023-07-20T12:43:41;25.60;91.00
27795;DHT22;15176;50.844;4.412;2023-07-20T12:46:07;25.90;88.70
27795;DHT22;15176;50.844;4.412;2023-07-20T12:48:34;25.80;87.60
27795;DHT22;15176;50.844;4.412;2023-07-20T12:51:00;25.90;87.00
27795;DHT22;15176;50.844;4.412;2023-07-20T12:53:26;25.70;86.60
27795;DHT22;15176;50.844;4.412;2023-07-20T12:55:51;25.70;89.10
27795;DHT22;15176;50.844;4.412;2023-07-20T12:58:18;25.60;88.80
27795;DHT22;15176;50.844;4.412;2023-07-20T13:00:43;25.70;88.80
27795;DHT22;15176;50.844;4.412;2023-07-20T13:03:09;25.50;87.70
27795;DHT22;15176;50.844;4.412;2023-07-20T13:05:35;25.60;88.40
27795;DHT22;15176;50.844;4.412;2023-07-20T13:08:02;25.30;88.50
27795;DHT22;15176;50.844;4.412;2023-07-20T13:10:28;25.30;89.30
27795;DHT22;15176;50.844;4.412;2023-07-20T13:12:54;25.30;87.60
27795;DHT22;15176;50.844;4.412;2023-07-20T13:15:20;25.10;88.70
27795;DHT22;15176;50.844;4.412;2023-07-20T13:17:46;25.30;88.70
27795;DHT22;15176;50.844;4.412;2023-07-20T13:20:12;25.10;90.40
27795;DHT22;15176;50.844;4.412;2023-07-20T13:22:39;25.30;90.70
27795;DHT22;15176;50.844;4.412;2023-07-20T13:25:08;25.20;91.70
27795;DHT22;15176;50.844;4.412;2023-07-20T13:27:35;25.10;92.20
27795;DHT22;15176;50.844;4.412;2023-07-20T13:30:02;25.10;94.80
27795;DHT22;15176;50.844;4.412;2023-07-20T13:32:32;25.00;95.40
27795;DHT22;15176;50.844;4.412;2023-07-20T13:34:58;24.10;98.00
27795;DHT22;15176;50.844;4.412;2023-07-20T13:37:26;24.30;97.70
27795;DHT22;15176;50.844;4.412;2023-07-20T13:39:52;23.70;99.90
27795;DHT22;15176;50.844;4.412;2023-07-20T13:42:18;23.70;99.90
27795;DHT22;15176;50.844;4.412;2023-07-20T13:44:43;23.30;99.90
27795;DHT22;15176;50.844;4.412;2023-07-20T13:47:09;23.50;99.90
27795;DHT22;15176;50.844;4.412;2023-07-20T13:49:35;23.60;99.90
27795;DHT22;15176;50.844;4.412;2023-07-20T13:52:00;23.80;99.90
27795;DHT22;15176;50.844;4.412;2023-07-20T13:54:26;24.00;99.90
27795;DHT22;15176;50.844;4.412;2023-07-20T13:56:52;24.00;99.90
27795;DHT22;15176;50.844;4.412;2023-07-20T13:59:19;24.00;99.90
27795;DHT22;15176;50.844;4.412;2023-07-20T14:01:45;24.00;99.90
27795;DHT22;15176;50.844;4.412;2023-07-20T14:04:10;24.10;99.90
27795;DHT22;15176;50.844;4.412;2023-07-20T14:06:36;24.10;99.90
27795;DHT22;15176;50.844;4.412;2023-07-20T14:09:02;24.30;99.90
27795;DHT22;15176;50.844;4.412;2023-07-20T14:11:29;24.30;99.90
27795;DHT22;15176;50.844;4.412;2023-07-20T14:13:54;24.20;99.90
27795;DHT22;15176;50.844;4.412;2023-07-20T14:16:23;24.40;99.90
27795;DHT22;15176;50.844;4.412;2023-07-20T14:18:49;24.60;99.90
27795;DHT22;15176;50.844;4.412;2023-07-20T14:21:16;24.70;99.70
27795;DHT22;15176;50.844;4.412;2023-07-20T14:23:44;24.80;99.50
27795;DHT22;15176;50.844;4.412;2023-07-20T14:26:10;25.00;99.90
27795;DHT22;15176;50.844;4.412;2023-07-20T14:28:35;25.30;98.60
27795;DHT22;15176;50.844;4.412;2023-07-20T14:31:01;25.40;98.20
27795;DHT22;15176;50.844;4.412;2023-07-20T14:33:27;25.60;97.00
27795;DHT22;15176;50.844;4.412;2023-07-20T14:35:53;25.50;96.20
27795;DHT22;15176;50.844;4.412;2023-07-20T14:38:20;25.70;94.50
27795;DHT22;15176;50.844;4.412;2023-07-20T14:40:45;25.80;95.10
27795;DHT22;15176;50.844;4.412;2023-07-20T14:43:11;26.10;94.70
27795;DHT22;15176;50.844;4.412;2023-07-20T14:45:37;26.10;93.60
27795;DHT22;15176;50.844;4.412;2023-07-20T14:48:03;25.90;93.60
27795;DHT22;15176;50.844;4.412;2023-07-20T14:50:29;26.00;92.80
27795;DHT22;15176;50.844;4.412;2023-07-20T14:52:55;26.00;92.40
27795;DHT22;15176;50.844;4.412;2023-07-20T14:55:20;26.20;92.40
27795;DHT22;15176;50.844;4.412;2023-07-20T14:57:48;26.30;92.70
27795;DHT22;15176;50.844;4.412;2023-07-20T15:00:14;26.70;92.80
27795;DHT22;15176;50.844;4.412;2023-07-20T15:02:40;26.70;92.80
27795;DHT22;15176;50.844;4.412;2023-07-20T15:05:10;26.60;91.10
27795;DHT22;15176;50.844;4.412;2023-07-20T15:07:36;26.50;90.90
27795;DHT22;15176;50.844;4.412;2023-07-20T15:10:03;26.30;91.30
27795;DHT22;15176;50.844;4.412;2023-07-20T15:12:30;26.50;90.80
27795;DHT22;15176;50.844;4.412;2023-07-20T15:15:07;26.60;88.40
27795;DHT22;15176;50.844;4.412;2023-07-20T15:17:34;26.20;89.90
27795;DHT22;15176;50.844;4.412;2023-07-20T15:20:01;25.90;91.20
27795;DHT22;15176;50.844;4.412;2023-07-20T15:22:30;25.50;91.20
27795;DHT22;15176;50.844;4.412;2023-07-20T15:24:56;25.50;91.30
27795;DHT22;15176;50.844;4.412;2023-07-20T15:27:22;25.60;90.60
27795;DHT22;15176;50.844;4.412;2023-07-20T15:29:49;25.40;90.60
27795;DHT22;15176;50.844;4.412;2023-07-20T15:32:15;25.50;90.80
27795;DHT22;15176;50.844;4.412;2023-07-20T15:34:45;25.60;90.70
27795;DHT22;15176;50.844;4.412;2023-07-20T15:37:18;25.30;90.80
27795;DHT22;15176;50.844;4.412;2023-07-20T15:39:48;25.10;91.20
27795;DHT22;15176;50.844;4.412;2023-07-20T15:42:14;25.00;91.70
27795;DHT22;15176;50.844;4.412;2023-07-20T15:44:41;24.90;92.30
27795;DHT22;15176;50.844;4.412;2023-07-20T15:47:07;25.10;92.20
27795;DHT22;15176;50.844;4.412;2023-07-20T15:49:33;25.00;94.50
27795;DHT22;15176;50.844;4.412;2023-07-20T15:52:01;24.50;95.80
27795;DHT22;15176;50.844;4.412;2023-07-20T15:54:27;23.70;99.90
27795;DHT22;15176;50.844;4.412;2023-07-20T15:56:53;23.00;99.90
27795;DHT22;15176;50.844;4.412;2023-07-20T15:59:19;22.90;99.90